Atlanta, MI

8:21 AM EST on January 26, 2015 (GMT -0500)
Moon Lake | Change Station
CLOSE
Current Station
Personal Weather Station
Location: Lewiston, MI
Elevation: 1240 ft
Nearby Weather Stations

Elev 1240 ft 44.84 °N, 84.26 °W | Updated 11 minutes ago

Mostly Cloudy
Mostly Cloudy
-9.2 °F
Feels Like -9 °F
N
0.0
Wind Variable Wind from NNW
Gusts 0.0 mph

Today
High -- | Low -- °F
--% Chance of Precip.
Yesterday
High -- | Low -- °F
Precip. -- in
8:02 AM 5:35 PM
Waxing Crescent, 43% visible
Pressure 30.04 in
Visibility 9.0 miles
Clouds Clear
Windchill -9 °F
Dew Point -15 °F
Humidity 75%
Rainfall 0.00 in
Snow Depth Not available.
UV 0 out of 12
Pollen .10 out of 12
Air Quality Not available.
Flu Activity Not available.
METAR KGLR 261253Z AUTO 00000KT 9SM CLR M24/M27 A2993 RMK AO2 SLP173 T12441267

More Conditions Fewer Conditions

Pressure 30.04 in
Visibility 9.0 miles
Clouds Clear
Windchill -9 °F
Dew Point -15 °F
Humidity 75%
Rainfall 0.00 in
Snow Depth Not available.
UV 0 out of 12
Pollen .10 out of 12
Air Quality Not available.
Flu Activity Not available.
METAR KGLR 261253Z AUTO 00000KT 9SM CLR M24/M27 A2993 RMK AO2 SLP173 T12441267

More Conditions Fewer Conditions

Nowcast | as of 8:00 am EST on January 26, 2015

At 9 am...mostly cloudy. Temperature 5 above. Light winds. At 11 am...mostly cloudy. Temperature 16. Light winds. At 1 PM...mostly cloudy. Temperature 20. Southeast winds 5 mph. At 3 PM...mostly cloudy. Temperature 21. East winds 6 mph.

×

10-Day Weather Forecast

Almanac

Astronomy

Jan. 26, 2015 Rise Set
Actual Time
Civil Twilight
Nautical Twilight
Astronomical Twilight
Moon
Length of Visible Light
Length of Day
Tomorrow will be .
, % of the Moon is Illuminated

Today's Extremes

State Highs State Lows

Community

WunderPhotos

Upload Photos

1,790,194 photos uploaded!

WunderBlogs® & News

Nearby

Air Quality

  Air Quality AQ Index Pollutant
Not available.

Snow Depth

Station Depth Elevation

Earthquake Activity

City Distance Mag. Time & Date
Minimum magnitude displayed is 2.5.

Coastal Water Temperatures

Place Temperature

Nearby Weather Stations